createdAt,value
2022-07-26T03:20:39.086Z,99.99
2022-07-26T03:21:39.277Z,99.99
2022-07-26T03:22:39.057Z,99.99
2022-07-26T03:23:39.043Z,99.99
2022-07-26T03:24:39.035Z,99.99
2022-07-26T03:25:39.028Z,99.99
2022-07-26T03:27:39.011Z,99.99
2022-07-26T03:28:38.989Z,99.99
2022-07-26T03:29:38.983Z,99.99
2022-07-26T03:30:39.112Z,99.99
2022-07-26T03:31:39.000Z,99.99
2022-07-26T03:32:39.147Z,99.99
2022-07-26T03:34:38.927Z,99.99
2022-07-26T03:35:38.915Z,99.99
2022-07-26T03:36:38.905Z,99.99
2022-07-26T03:37:45.629Z,99.99
2022-07-26T03:38:39.925Z,99.99
2022-07-26T03:39:38.878Z,99.99
2022-07-26T03:40:38.861Z,99.99
2022-07-26T03:41:38.850Z,99.99
2022-07-26T03:42:38.844Z,99.99
2022-07-26T03:45:38.820Z,99.99
2022-07-26T03:46:39.053Z,99.99
2022-07-26T03:47:38.788Z,99.99
2022-07-26T03:48:38.808Z,99.99
2022-07-26T03:49:38.761Z,99.99
2022-07-26T03:50:40.806Z,99.99
2022-07-26T03:51:38.743Z,99.99
2022-07-26T03:52:38.749Z,99.99
2022-07-26T03:53:38.719Z,99.99
2022-07-26T03:54:38.710Z,99.99
2022-07-26T03:55:38.714Z,99.99
2022-07-26T03:56:38.690Z,99.99
2022-07-26T03:57:44.689Z,99.99
2022-07-26T03:58:38.670Z,99.99
2022-07-26T03:59:38.657Z,99.99
2022-07-26T04:00:38.652Z,99.99
2022-07-26T04:01:38.678Z,99.99
2022-07-26T04:02:38.732Z,99.99
2022-07-26T04:03:38.615Z,99.99
2022-07-26T04:04:44.623Z,99.99
2022-07-26T04:05:38.590Z,99.99
2022-07-26T04:06:38.580Z,99.99
2022-07-26T04:07:38.568Z,99.99
2022-07-26T04:08:38.562Z,99.99
2022-07-26T04:09:38.551Z,99.99
2022-07-26T04:10:38.538Z,99.99
2022-07-26T04:11:38.529Z,99.99
2022-07-26T04:12:38.515Z,99.99
2022-07-26T04:13:38.515Z,99.99
2022-07-26T04:14:38.498Z,99.99
2022-07-26T04:15:38.485Z,99.99
2022-07-26T04:16:43.236Z,99.99
2022-07-26T04:17:38.471Z,99.99
2022-07-26T04:18:38.459Z,99.99
2022-07-26T04:19:39.847Z,99.99
2022-07-26T04:20:38.430Z,99.99
2022-07-26T04:21:38.425Z,99.99
2022-07-26T04:22:38.614Z,99.99
2022-07-26T04:23:38.412Z,99.99
2022-07-26T04:24:38.444Z,99.99
2022-07-26T04:25:41.011Z,99.99
2022-07-26T04:26:38.377Z,99.99
2022-07-26T04:27:38.363Z,99.99
2022-07-26T04:28:44.364Z,99.99
2022-07-26T04:29:38.341Z,99.99
2022-07-26T04:30:38.434Z,99.99
2022-07-26T04:31:38.328Z,99.99
2022-07-26T04:32:38.317Z,99.99
2022-07-26T04:33:38.324Z,99.99
2022-07-26T04:34:40.341Z,99.99
2022-07-26T04:35:38.271Z,99.99
2022-07-26T04:36:38.257Z,99.99
2022-07-26T04:37:38.457Z,99.99
2022-07-26T04:38:38.236Z,99.99
2022-07-26T04:39:38.228Z,99.99
2022-07-26T04:40:40.725Z,99.99
2022-07-26T04:41:38.226Z,99.99
2022-07-26T04:42:38.195Z,99.99
2022-07-26T04:43:38.187Z,99.99
2022-07-26T04:44:38.183Z,99.99
2022-07-26T04:45:44.263Z,99.99
2022-07-26T04:46:38.279Z,99.99
2022-07-26T04:47:38.149Z,99.99
2022-07-26T04:48:38.170Z,99.13
2022-07-26T04:49:38.116Z,99.23
2022-07-26T04:50:38.112Z,98.32
2022-07-26T04:51:38.106Z,98.22
2022-07-26T04:52:38.088Z,98.42
2022-07-26T04:53:38.099Z,98.22
2022-07-26T04:54:38.072Z,98.48
2022-07-26T04:55:38.054Z,98.27
2022-07-26T04:56:38.047Z,97.86
2022-07-26T04:57:38.038Z,99.59
2022-07-26T04:58:38.022Z,99.99
2022-07-26T04:59:38.013Z,97.72
2022-07-26T05:00:56.842Z,98.93
2022-07-26T05:01:39.091Z,99.99
2022-07-26T05:02:38.057Z,99.60
2022-07-26T05:03:37.976Z,98.79
2022-07-26T05:04:37.960Z,99.85
2022-07-26T05:05:37.952Z,97.12
2022-07-26T05:06:37.962Z,97.18
2022-07-26T05:07:37.923Z,94.75
2022-07-26T05:08:37.910Z,95.56
2022-07-26T05:09:37.910Z,93.89
2022-07-26T05:10:37.899Z,95.41
2022-07-26T05:11:37.880Z,98.19
2022-07-26T05:12:37.874Z,98.40
2022-07-26T05:13:37.932Z,98.55
2022-07-26T05:14:37.848Z,97.14
2022-07-26T05:15:37.851Z,95.78
2022-07-26T05:16:39.098Z,97.39
2022-07-26T05:17:38.853Z,91.80
2022-07-26T05:18:43.859Z,91.49
2022-07-26T05:19:38.835Z,89.63
2022-07-26T05:20:37.787Z,88.52
2022-07-26T05:21:37.789Z,88.83
2022-07-26T05:22:37.760Z,87.37
2022-07-26T05:23:43.761Z,87.37
2022-07-26T05:24:37.744Z,88.58
2022-07-26T05:25:37.731Z,90.36
2022-07-26T05:26:43.731Z,90.56
2022-07-26T05:27:37.706Z,87.23
2022-07-26T05:28:37.698Z,85.98
2022-07-26T05:29:37.890Z,84.36
2022-07-26T05:30:37.723Z,88.60
2022-07-26T05:31:37.665Z,90.97
2022-07-26T05:32:37.650Z,91.38
2022-07-26T05:33:37.642Z,89.63
2022-07-26T05:34:37.632Z,83.68
2022-07-26T05:35:37.624Z,84.39
2022-07-26T05:36:37.611Z,87.21
2022-07-26T05:37:37.599Z,86.96
2022-07-26T05:38:37.593Z,90.08
2022-07-26T05:39:37.581Z,87.93
2022-07-26T05:40:48.600Z,85.31
2022-07-26T05:41:37.564Z,81.09
2022-07-26T05:42:37.548Z,81.29
2022-07-26T05:43:40.647Z,83.40
2022-07-26T05:44:43.536Z,79.07
2022-07-26T05:45:37.529Z,83.70
2022-07-26T05:46:37.611Z,81.49
2022-07-26T05:47:37.501Z,78.67
2022-07-26T05:48:37.594Z,78.27
2022-07-26T05:49:40.543Z,78.47
2022-07-26T05:50:37.664Z,78.47
2022-07-26T05:51:37.450Z,78.77
2022-07-26T05:52:37.444Z,79.47
2022-07-26T05:53:37.430Z,81.59
2022-07-26T05:54:37.419Z,82.59
2022-07-26T05:55:37.407Z,79.14
2022-07-26T05:56:39.451Z,83.86
2022-07-26T05:58:20.144Z,82.51
2022-07-26T05:59:20.122Z,81.51
2022-07-26T06:00:20.115Z,83.12
2022-07-26T06:01:20.111Z,82.28
2022-07-26T06:02:20.162Z,78.86
2022-07-26T06:03:20.082Z,80.23
2022-07-26T06:04:20.144Z,76.21
2022-07-26T06:05:26.066Z,78.52
2022-07-26T06:06:20.051Z,76.61
2022-07-26T06:07:20.043Z,77.22
2022-07-26T06:08:20.031Z,74.81
2022-07-26T06:09:20.220Z,74.87
2022-07-26T06:10:20.013Z,74.81
2022-07-26T06:11:19.995Z,81.09
2022-07-26T06:12:19.985Z,79.49
2022-07-26T06:13:19.973Z,75.44
2022-07-26T06:14:19.964Z,75.07
2022-07-26T06:15:19.953Z,73.97
2022-07-26T06:16:19.942Z,73.46
2022-07-26T06:17:19.994Z,76.78
2022-07-26T06:18:19.921Z,76.37
2022-07-26T06:19:19.908Z,78.85
2022-07-26T06:20:19.904Z,79.51
2022-07-26T06:21:19.891Z,73.40
2022-07-26T06:22:19.883Z,73.66
2022-07-26T06:23:34.763Z,74.23
2022-07-26T06:24:19.860Z,72.49
2022-07-26T06:25:19.925Z,72.39
2022-07-26T06:26:20.039Z,70.95
2022-07-26T06:27:19.836Z,70.25
2022-07-26T06:28:20.024Z,69.36
2022-07-26T06:29:19.803Z,74.02
2022-07-26T06:30:19.796Z,70.19
2022-07-26T06:31:19.858Z,71.35
2022-07-26T06:32:19.775Z,70.88
2022-07-26T06:33:19.967Z,62.32
2022-07-26T06:34:19.757Z,68.23
2022-07-26T06:35:19.749Z,65.80
2022-07-26T06:36:19.736Z,63.90
2022-07-26T06:37:19.732Z,65.03
2022-07-26T06:38:19.713Z,69.86
2022-07-26T06:39:19.713Z,71.55
2022-07-26T06:40:19.891Z,70.45
2022-07-26T06:41:19.683Z,69.79
2022-07-26T06:42:19.673Z,67.19
2022-07-26T06:43:19.665Z,67.05
2022-07-26T06:44:19.677Z,68.79
2022-07-26T06:45:19.648Z,69.48
2022-07-26T06:46:19.727Z,72.69
2022-07-26T06:47:19.618Z,72.66
2022-07-26T06:48:25.619Z,72.16
2022-07-26T06:49:22.624Z,69.45
2022-07-26T06:50:20.873Z,70.15
2022-07-26T06:51:20.811Z,69.36
2022-07-26T06:52:19.581Z,71.55
2022-07-26T06:53:19.766Z,68.52
2022-07-26T06:54:19.550Z,72.92
2022-07-26T06:55:19.551Z,67.69
2022-07-26T06:56:19.526Z,67.69
2022-07-26T06:57:25.532Z,66.16
2022-07-26T06:58:19.710Z,66.76
2022-07-26T06:59:19.501Z,67.16
2022-07-26T07:00:19.704Z,66.55
2022-07-26T07:01:55.525Z,69.75
2022-07-26T07:02:20.513Z,66.22
2022-07-26T07:03:19.451Z,67.59
2022-07-26T07:05:02.288Z,69.62
2022-07-26T07:06:02.182Z,69.19
2022-07-26T07:07:02.181Z,67.29
2022-07-26T07:08:02.166Z,66.16
2022-07-26T07:09:02.158Z,65.17
2022-07-26T07:10:02.148Z,65.24
2022-07-26T07:11:02.131Z,64.21
2022-07-26T07:12:09.367Z,62.59
2022-07-26T07:13:03.154Z,59.21
2022-07-26T07:14:02.104Z,61.16
2022-07-26T07:15:02.090Z,59.35
2022-07-26T07:16:02.170Z,58.35
2022-07-26T07:17:02.069Z,60.64
2022-07-26T07:18:03.095Z,58.62
2022-07-26T07:19:02.058Z,59.72
2022-07-26T07:20:02.050Z,58.62
2022-07-26T07:21:02.043Z,57.80
2022-07-26T07:22:02.028Z,59.96
2022-07-26T07:23:02.016Z,58.74
2022-07-26T07:24:02.079Z,57.45
2022-07-26T07:25:03.007Z,56.88
2022-07-26T07:26:02.014Z,57.77
2022-07-26T07:27:01.971Z,57.15
2022-07-26T07:28:01.993Z,60.02
2022-07-26T07:29:04.183Z,57.92
2022-07-26T07:30:01.940Z,56.03
2022-07-26T07:31:01.923Z,57.69
2022-07-26T07:32:03.384Z,55.09
2022-07-26T07:33:01.912Z,53.77
2022-07-26T07:34:01.898Z,54.71
2022-07-26T07:35:01.881Z,52.95
2022-07-26T07:36:09.883Z,50.68
2022-07-26T07:37:01.862Z,53.85
2022-07-26T07:38:08.063Z,50.14
2022-07-26T07:39:06.157Z,47.40
2022-07-26T07:40:01.841Z,48.14
2022-07-26T07:41:01.821Z,48.44
2022-07-26T07:42:07.881Z,49.03
2022-07-26T07:43:01.811Z,48.37
2022-07-26T07:44:01.790Z,47.90
2022-07-26T07:45:01.783Z,45.79
2022-07-26T07:46:01.773Z,43.41
2022-07-26T07:47:01.849Z,44.72
2022-07-26T07:48:01.756Z,47.27
2022-07-26T07:49:01.817Z,49.44
2022-07-26T07:50:01.743Z,51.56
2022-07-26T07:51:01.727Z,51.42
2022-07-26T07:52:07.717Z,47.60
2022-07-26T07:53:02.135Z,46.05
2022-07-26T07:54:05.415Z,46.06
2022-07-26T07:55:36.473Z,49.86
2022-07-26T07:56:02.953Z,48.40
2022-07-26T07:57:07.670Z,49.84
2022-07-26T07:58:01.658Z,51.00
2022-07-26T07:59:01.639Z,52.86
2022-07-26T08:00:01.639Z,51.47
2022-07-26T08:01:01.732Z,48.54
2022-07-26T08:02:01.611Z,44.61
2022-07-26T08:03:01.813Z,44.89
2022-07-26T08:04:01.662Z,46.16
2022-07-26T08:05:11.497Z,46.10
2022-07-26T08:06:02.619Z,41.40
2022-07-26T08:07:01.559Z,38.20
2022-07-26T08:08:01.559Z,37.17
2022-07-26T08:09:01.742Z,36.18
2022-07-26T08:10:01.935Z,36.19
2022-07-26T08:11:01.524Z,35.37
2022-07-26T08:12:01.518Z,36.93
2022-07-26T08:13:01.503Z,38.83
2022-07-26T08:14:01.696Z,34.12
2022-07-26T08:15:01.498Z,35.92
2022-07-26T08:16:01.577Z,37.12
2022-07-26T08:17:01.595Z,39.91
2022-07-26T08:18:07.984Z,40.67
2022-07-26T08:19:01.454Z,41.68
2022-07-26T08:20:01.457Z,42.48
2022-07-26T08:21:01.437Z,41.95
2022-07-26T08:22:01.823Z,43.49
2022-07-26T08:23:07.637Z,41.93
2022-07-26T08:24:01.400Z,39.41
2022-07-26T08:25:01.386Z,37.69
2022-07-26T08:26:06.317Z,36.79
2022-07-26T08:27:01.568Z,37.13
2022-07-26T08:28:03.577Z,36.13
2022-07-26T08:29:07.556Z,36.29
2022-07-26T08:30:01.344Z,35.57
2022-07-26T08:31:09.502Z,37.23
2022-07-26T08:32:01.331Z,36.41
2022-07-26T08:33:01.309Z,35.29
2022-07-26T08:34:01.305Z,36.10
2022-07-26T08:35:17.371Z,34.41
2022-07-26T08:36:04.371Z,33.71
2022-07-26T08:37:16.474Z,32.59
2022-07-26T08:38:03.260Z,32.16
2022-07-26T08:39:01.429Z,31.59
2022-07-26T08:40:01.248Z,34.60
2022-07-26T08:41:07.243Z,32.06
2022-07-26T08:42:01.228Z,33.47
2022-07-26T08:43:01.423Z,31.40
2022-07-26T08:44:01.207Z,29.83
2022-07-26T08:45:01.200Z,29.82
2022-07-26T08:46:01.191Z,30.09
2022-07-26T08:47:01.252Z,30.65
2022-07-26T08:48:18.379Z,28.64
2022-07-26T08:49:02.268Z,28.52
2022-07-26T08:50:01.157Z,29.43
2022-07-26T08:51:07.151Z,31.10
2022-07-26T08:52:01.142Z,29.14
2022-07-26T08:53:01.132Z,31.40
2022-07-26T08:54:05.317Z,30.59
2022-07-26T08:55:01.116Z,30.37
2022-07-26T08:56:39.855Z,27.23
2022-07-26T08:57:39.832Z,29.15
2022-07-26T08:58:45.833Z,29.10
2022-07-26T08:59:39.813Z,28.12
2022-07-26T09:00:39.835Z,28.42
2022-07-26T09:02:39.793Z,29.28
2022-07-26T09:03:40.064Z,28.99
2022-07-26T09:04:44.229Z,31.40
2022-07-26T09:06:14.661Z,32.91
2022-07-26T09:07:14.652Z,31.93
2022-07-26T09:08:14.650Z,35.15
2022-07-26T09:09:14.825Z,33.66
2022-07-26T09:10:14.613Z,34.03
2022-07-26T09:11:14.620Z,30.97
2022-07-26T09:12:20.604Z,28.46
2022-07-26T09:13:14.595Z,29.38
2022-07-26T09:14:14.576Z,29.71
2022-07-26T09:15:14.569Z,30.74
2022-07-26T09:16:14.650Z,34.12
2022-07-26T09:17:14.549Z,34.48
2022-07-26T09:18:14.759Z,36.17
2022-07-26T09:19:14.539Z,34.05
2022-07-26T09:20:14.934Z,34.79
2022-07-26T09:21:14.521Z,35.96
2022-07-26T09:22:14.511Z,36.54
2022-07-26T09:23:14.498Z,35.98
2022-07-26T09:24:14.896Z,36.40
2022-07-26T09:25:14.689Z,36.84
2022-07-26T09:26:14.470Z,36.84
2022-07-26T09:27:14.472Z,35.86
2022-07-26T09:28:14.654Z,34.19
2022-07-26T09:29:14.451Z,37.51
2022-07-26T09:30:14.437Z,37.88
2022-07-26T09:31:14.497Z,39.09
2022-07-26T09:32:20.627Z,39.52
2022-07-26T09:33:20.472Z,40.25
2022-07-26T09:34:14.403Z,41.49
2022-07-26T09:35:44.619Z,43.30
2022-07-26T09:36:15.416Z,45.78
2022-07-26T09:37:14.374Z,44.99
2022-07-26T09:38:14.387Z,44.94
2022-07-26T09:39:14.355Z,46.31
2022-07-26T09:40:14.413Z,46.53
2022-07-26T09:41:14.337Z,44.66
2022-07-26T09:42:30.019Z,46.14
2022-07-26T09:43:15.782Z,47.10
2022-07-26T09:44:14.438Z,47.30
2022-07-26T09:45:14.299Z,44.81
2022-07-26T09:46:14.379Z,44.32
2022-07-26T09:47:22.487Z,40.19
2022-07-26T09:48:14.265Z,42.62
2022-07-26T09:49:14.299Z,38.76
2022-07-26T09:50:14.421Z,38.00
2022-07-26T09:51:14.237Z,38.54
2022-07-26T09:52:14.432Z,39.86
2022-07-26T09:53:14.224Z,38.81
2022-07-26T09:54:15.179Z,40.23
2022-07-26T09:55:14.201Z,42.96
2022-07-26T09:56:20.194Z,43.40
2022-07-26T09:57:14.179Z,45.88
2022-07-26T09:58:14.517Z,45.09
2022-07-26T09:59:14.162Z,43.44
2022-07-26T10:00:14.392Z,43.06
2022-07-26T10:01:14.198Z,44.62
2022-07-26T10:02:14.137Z,46.02
2022-07-26T10:03:14.213Z,44.56
2022-07-26T10:04:14.590Z,36.05
2022-07-26T10:05:14.095Z,36.52
2022-07-26T10:06:14.088Z,35.99
2022-07-26T10:07:14.084Z,36.04
2022-07-26T10:08:20.099Z,36.49
2022-07-26T10:09:14.070Z,38.42
2022-07-26T10:10:14.198Z,40.48
2022-07-26T10:11:14.444Z,42.75
2022-07-26T10:12:20.037Z,45.03
2022-07-26T10:13:14.018Z,43.87
2022-07-26T10:14:14.215Z,44.73
2022-07-26T10:15:14.204Z,46.82
2022-07-26T10:16:14.261Z,46.85
2022-07-26T10:17:15.018Z,47.14
2022-07-26T10:18:18.299Z,48.92
2022-07-26T10:19:13.965Z,50.31
2022-07-26T10:20:17.487Z,48.52
2022-07-26T10:21:14.976Z,48.92
2022-07-26T10:22:13.934Z,49.22
2022-07-26T10:23:13.927Z,49.89
2022-07-26T10:24:14.094Z,48.11
2022-07-26T10:25:13.902Z,47.64
2022-07-26T10:26:13.893Z,48.45
2022-07-26T10:27:13.878Z,48.27
2022-07-26T10:28:13.873Z,48.48
2022-07-26T10:29:13.859Z,48.18
2022-07-26T10:30:14.051Z,48.38
2022-07-26T10:31:13.927Z,49.74
2022-07-26T10:32:20.049Z,47.36
2022-07-26T10:33:13.823Z,49.04
2022-07-26T10:34:14.191Z,47.71
2022-07-26T10:35:13.798Z,46.03
2022-07-26T10:36:13.790Z,45.69
2022-07-26T10:37:13.780Z,46.44
2022-07-26T10:38:13.773Z,44.45
2022-07-26T10:39:13.960Z,42.60
2022-07-26T10:40:13.748Z,41.82
2022-07-26T10:41:13.739Z,40.33
2022-07-26T10:42:13.733Z,41.40
2022-07-26T10:43:41.865Z,40.38
2022-07-26T10:44:14.742Z,41.90
2022-07-26T10:45:14.010Z,43.51
2022-07-26T10:46:19.733Z,43.44
2022-07-26T10:47:13.674Z,46.39
2022-07-26T10:48:13.674Z,43.38
2022-07-26T10:49:13.701Z,44.96
2022-07-26T10:50:13.646Z,47.33
2022-07-26T10:51:13.635Z,45.94
2022-07-26T10:52:13.649Z,46.16
2022-07-26T10:53:13.615Z,45.55
2022-07-26T10:54:14.191Z,44.86
2022-07-26T10:55:13.596Z,45.28
2022-07-26T10:56:13.581Z,47.25
2022-07-26T10:57:13.572Z,47.35
2022-07-26T10:58:13.564Z,47.25
2022-07-26T10:59:27.955Z,44.43
2022-07-26T11:00:13.555Z,46.77
2022-07-26T11:01:13.578Z,47.36
2022-07-26T11:02:13.525Z,48.95
2022-07-26T11:03:14.882Z,47.19
2022-07-26T11:04:14.095Z,49.24
2022-07-26T11:05:13.513Z,47.68
2022-07-26T11:06:13.484Z,49.86
2022-07-26T11:07:13.473Z,50.23
2022-07-26T11:08:19.469Z,49.63
2022-07-26T11:09:13.453Z,47.93
2022-07-26T11:10:48.337Z,47.36
2022-07-26T11:11:48.115Z,50.01
2022-07-26T11:12:48.101Z,49.22
2022-07-26T11:13:48.091Z,47.83
2022-07-26T11:14:48.620Z,50.28
2022-07-26T11:15:48.172Z,49.29
2022-07-26T11:16:48.272Z,46.03
2022-07-26T11:17:48.263Z,46.85
2022-07-26T11:18:48.044Z,49.29
2022-07-26T11:19:48.238Z,48.11
2022-07-26T11:20:48.022Z,46.06
2022-07-26T11:21:48.013Z,47.14
2022-07-26T11:22:48.005Z,48.01
2022-07-26T11:23:48.193Z,46.85
2022-07-26T11:24:47.983Z,48.03
2022-07-26T11:25:47.973Z,46.65
2022-07-26T11:26:53.970Z,48.33
2022-07-26T11:27:47.953Z,46.92
2022-07-26T11:28:53.951Z,46.16
2022-07-26T11:29:50.111Z,46.65
2022-07-26T11:30:47.960Z,46.65
2022-07-26T11:31:51.520Z,48.73
2022-07-26T11:32:48.933Z,45.84
2022-07-26T11:33:47.884Z,46.82
2022-07-26T11:34:47.879Z,47.22
2022-07-26T11:35:53.879Z,48.98
2022-07-26T11:36:47.858Z,48.16
2022-07-26T11:37:48.048Z,45.57
2022-07-26T11:38:48.040Z,46.46
2022-07-26T11:39:47.835Z,47.05
2022-07-26T11:40:47.818Z,47.15
2022-07-26T11:41:48.070Z,46.36
2022-07-26T11:42:47.791Z,45.94
2022-07-26T11:43:53.799Z,45.28
2022-07-26T11:44:47.786Z,44.33
2022-07-26T11:45:47.828Z,47.81
2022-07-26T11:46:53.932Z,45.95
2022-07-26T11:47:47.947Z,48.05
2022-07-26T11:48:48.045Z,48.57
2022-07-26T11:50:01.075Z,50.48
2022-07-26T11:50:48.750Z,50.31
2022-07-26T11:51:53.726Z,49.31
2022-07-26T11:52:47.893Z,49.83
2022-07-26T11:53:47.881Z,48.35
2022-07-26T11:54:47.671Z,50.06
2022-07-26T11:55:47.741Z,48.17
2022-07-26T11:56:47.653Z,50.55
2022-07-26T11:57:53.849Z,48.37
2022-07-26T11:58:47.834Z,50.65
2022-07-26T11:59:47.617Z,49.76
2022-07-26T12:00:47.609Z,50.03
2022-07-26T12:01:49.857Z,49.21
2022-07-26T12:02:50.341Z,48.52
2022-07-26T12:03:55.615Z,48.79
2022-07-26T12:04:49.903Z,48.38
2022-07-26T12:05:47.616Z,49.54
2022-07-26T12:06:47.552Z,48.51
2022-07-26T12:07:47.737Z,47.10
2022-07-26T12:08:50.368Z,47.57
2022-07-26T12:09:49.520Z,46.96
2022-07-26T12:10:47.527Z,47.22
2022-07-26T12:11:47.496Z,45.35
2022-07-26T12:12:47.486Z,45.83
2022-07-26T12:13:55.313Z,46.71
2022-07-26T12:14:49.462Z,44.44
2022-07-26T12:15:47.603Z,47.57
2022-07-26T12:16:47.442Z,46.56
2022-07-26T12:17:47.431Z,46.05
2022-07-26T12:18:47.427Z,42.81
2022-07-26T12:19:47.618Z,42.81
2022-07-26T12:20:54.748Z,40.83
2022-07-26T12:21:49.392Z,42.61
2022-07-26T12:22:47.388Z,43.28
2022-07-26T12:23:47.370Z,43.45
2022-07-26T12:24:47.571Z,40.46
2022-07-26T12:25:49.194Z,40.05
2022-07-26T12:26:47.346Z,40.13
2022-07-26T12:27:47.335Z,39.72
2022-07-26T12:28:47.324Z,38.93
2022-07-26T12:29:47.309Z,39.88
2022-07-26T12:30:47.309Z,36.64
2022-07-26T12:31:47.291Z,36.37
2022-07-26T12:32:53.485Z,39.09
2022-07-26T12:33:47.265Z,36.49
2022-07-26T12:34:47.254Z,37.30
2022-07-26T12:35:47.246Z,35.18
2022-07-26T12:36:47.251Z,35.40
2022-07-26T12:37:47.227Z,37.25
2022-07-26T12:38:53.224Z,36.37
2022-07-26T12:39:47.207Z,36.57
2022-07-26T12:40:47.198Z,36.37
2022-07-26T12:41:47.198Z,36.91
2022-07-26T12:42:47.376Z,32.67
2022-07-26T12:43:49.199Z,33.38
2022-07-26T12:44:53.166Z,34.38
2022-07-26T12:45:47.222Z,35.59
2022-07-26T12:46:47.199Z,36.29
2022-07-26T12:47:47.125Z,36.21
2022-07-26T12:48:47.180Z,37.23
2022-07-26T12:49:47.104Z,36.97
2022-07-26T12:50:47.161Z,38.01
2022-07-26T12:51:47.138Z,38.04
2022-07-26T12:52:53.086Z,39.73
2022-07-26T12:53:47.271Z,41.33
2022-07-26T12:54:47.061Z,40.64
2022-07-26T12:55:47.047Z,40.27
2022-07-26T12:56:47.039Z,41.66
2022-07-26T12:57:47.607Z,40.70
2022-07-26T12:58:53.034Z,40.44
2022-07-26T12:59:47.011Z,42.75
2022-07-26T13:00:47.034Z,42.87
2022-07-26T13:01:47.097Z,41.58
2022-07-26T13:02:47.000Z,42.70
2022-07-26T13:03:46.969Z,42.89
2022-07-26T13:04:47.047Z,44.08
2022-07-26T13:05:47.600Z,43.78
2022-07-26T13:06:52.948Z,42.99
2022-07-26T13:08:29.640Z,45.90
2022-07-26T13:09:29.607Z,45.88
2022-07-26T13:10:33.535Z,45.05
2022-07-26T13:11:29.588Z,43.45
2022-07-26T13:12:29.582Z,44.21
2022-07-26T13:13:29.826Z,44.76
2022-07-26T13:14:29.560Z,43.75
2022-07-26T13:15:35.196Z,41.07
2022-07-26T13:16:31.667Z,39.99
2022-07-26T13:17:29.528Z,43.02
2022-07-26T13:18:29.524Z,40.33
2022-07-26T13:19:29.507Z,38.53
2022-07-26T13:20:35.710Z,37.83
2022-07-26T13:21:33.512Z,39.38
2022-07-26T13:22:29.480Z,38.87
2022-07-26T13:23:29.664Z,38.81
2022-07-26T13:24:29.456Z,38.72
2022-07-26T13:25:39.644Z,34.67
2022-07-26T13:26:29.433Z,32.53
2022-07-26T13:27:36.025Z,30.30
2022-07-26T13:28:31.619Z,30.74
2022-07-26T13:29:29.616Z,32.43
2022-07-26T13:30:29.715Z,31.96
2022-07-26T13:31:29.511Z,33.78
2022-07-26T13:33:04.274Z,34.77
2022-07-26T13:34:38.755Z,35.83
2022-07-26T13:35:38.721Z,34.69
2022-07-26T13:36:38.737Z,37.04
2022-07-26T13:37:38.712Z,35.69
2022-07-26T13:38:38.692Z,35.59
2022-07-26T13:39:38.692Z,35.30
2022-07-26T13:40:38.876Z,35.30
2022-07-26T13:42:15.377Z,35.36
2022-07-26T13:43:15.357Z,36.46
2022-07-26T13:44:15.348Z,39.48
2022-07-26T13:45:15.539Z,36.43
2022-07-26T13:46:21.421Z,36.27
2022-07-26T13:47:15.527Z,36.56
2022-07-26T13:48:15.505Z,39.78
2022-07-26T13:49:15.324Z,37.60
2022-07-26T13:50:15.293Z,36.90
2022-07-26T13:51:15.498Z,36.31
2022-07-26T13:52:21.486Z,36.49
2022-07-26T13:53:15.584Z,34.52
2022-07-26T13:54:21.255Z,35.00
2022-07-26T13:55:15.447Z,35.41
2022-07-26T13:56:15.427Z,37.07
2022-07-26T13:57:21.677Z,35.41
2022-07-26T13:58:21.209Z,36.80
2022-07-26T13:59:15.414Z,35.82
2022-07-26T14:00:21.411Z,36.31
2022-07-26T14:01:15.250Z,36.13
2022-07-26T14:02:15.358Z,36.98
2022-07-26T14:03:21.283Z,34.42
2022-07-26T14:04:15.798Z,33.98
2022-07-26T14:05:21.359Z,31.25
2022-07-26T14:06:15.134Z,31.65
2022-07-26T14:07:15.118Z,33.69
2022-07-26T14:08:15.108Z,33.94
2022-07-26T14:09:21.312Z,32.84
2022-07-26T14:10:15.092Z,30.97
2022-07-26T14:11:15.081Z,31.95
2022-07-26T14:12:15.077Z,30.31
2022-07-26T14:13:15.063Z,33.89
2022-07-26T14:14:15.366Z,33.21
2022-07-26T14:15:22.924Z,32.82
2022-07-26T14:16:15.119Z,31.85
2022-07-26T14:17:21.188Z,30.90
2022-07-26T14:18:15.019Z,33.00
2022-07-26T14:19:15.003Z,31.28
2022-07-26T14:20:15.004Z,34.33
2022-07-26T14:21:14.991Z,34.04
2022-07-26T14:22:14.973Z,33.09
2022-07-26T14:23:14.983Z,33.64
2022-07-26T14:24:17.029Z,33.48
2022-07-26T14:25:21.012Z,35.55
2022-07-26T14:26:14.945Z,35.39
2022-07-26T14:27:21.139Z,37.24
2022-07-26T14:28:21.336Z,36.32
2022-07-26T14:29:14.908Z,35.02
2022-07-26T14:30:16.178Z,35.69
2022-07-26T14:31:14.949Z,37.18
2022-07-26T14:32:21.040Z,35.81
2022-07-26T14:33:15.917Z,36.29
2022-07-26T14:34:15.321Z,33.98
2022-07-26T14:35:14.855Z,35.20
2022-07-26T14:36:15.075Z,31.34
2022-07-26T14:37:43.940Z,30.71
2022-07-26T14:38:23.191Z,29.65
2022-07-26T14:39:15.851Z,31.02
2022-07-26T14:40:14.811Z,31.23
2022-07-26T14:41:14.840Z,30.18
2022-07-26T14:42:20.998Z,32.26
2022-07-26T14:43:20.787Z,30.23
2022-07-26T14:44:14.969Z,32.51
2022-07-26T14:45:14.993Z,34.91
2022-07-26T14:46:14.827Z,34.73
2022-07-26T14:47:14.751Z,34.25
2022-07-26T14:48:26.827Z,35.96
2022-07-26T14:49:16.024Z,36.08
2022-07-26T14:50:14.712Z,37.87
2022-07-26T14:51:15.106Z,37.65
2022-07-26T14:52:14.896Z,37.16
2022-07-26T14:53:15.113Z,38.24
2022-07-26T14:54:15.132Z,37.04
2022-07-26T14:55:25.451Z,38.72
2022-07-26T14:56:20.670Z,34.67
2022-07-26T14:57:14.657Z,38.28
2022-07-26T14:58:14.635Z,36.91
2022-07-26T14:59:14.622Z,35.54
2022-07-26T15:00:14.819Z,37.40
2022-07-26T15:01:15.102Z,35.81
2022-07-26T15:02:14.649Z,39.13
2022-07-26T15:03:14.585Z,36.56
2022-07-26T15:04:15.088Z,33.72
2022-07-26T15:05:14.566Z,33.85
2022-07-26T15:06:14.552Z,36.71
2022-07-26T15:07:14.539Z,33.78
2022-07-26T15:08:14.788Z,34.68
2022-07-26T15:09:14.731Z,35.70
2022-07-26T15:10:14.523Z,35.13
2022-07-26T15:11:20.713Z,36.21
2022-07-26T15:12:49.550Z,35.83
2022-07-26T15:13:49.736Z,35.05
2022-07-26T15:14:49.752Z,37.62
2022-07-26T15:15:49.709Z,35.55
2022-07-26T15:16:49.553Z,34.88
2022-07-26T15:17:49.490Z,36.24
2022-07-26T15:18:49.514Z,38.89
2022-07-26T15:20:36.480Z,38.85
2022-07-26T15:21:36.405Z,37.16
2022-07-26T15:22:36.399Z,35.10
2022-07-26T15:23:36.385Z,36.37
2022-07-26T15:24:39.771Z,34.80
2022-07-26T15:25:42.379Z,33.93
2022-07-26T15:26:36.966Z,36.27
2022-07-26T15:27:36.554Z,34.50
2022-07-26T15:28:36.338Z,34.99
2022-07-26T15:29:36.329Z,35.66
2022-07-26T15:30:36.534Z,33.90
2022-07-26T15:31:37.454Z,32.62
2022-07-26T15:32:36.340Z,36.53
2022-07-26T15:33:36.290Z,35.85
2022-07-26T15:34:42.494Z,35.35
2022-07-26T15:35:36.265Z,32.51
2022-07-26T15:36:36.455Z,35.93
2022-07-26T15:37:36.249Z,34.55
2022-07-26T15:38:36.637Z,31.02
2022-07-26T15:39:36.227Z,34.27
2022-07-26T15:40:36.219Z,34.46
2022-07-26T15:41:36.415Z,35.93
2022-07-26T15:42:36.193Z,34.47
2022-07-26T15:43:48.558Z,35.55
2022-07-26T15:44:38.380Z,35.73
2022-07-26T15:45:36.623Z,33.29
2022-07-26T15:46:36.159Z,35.35
2022-07-26T15:47:54.036Z,32.52
2022-07-26T15:48:37.326Z,35.68
2022-07-26T15:49:42.342Z,35.49
2022-07-26T15:50:36.322Z,33.83
2022-07-26T15:51:36.104Z,34.53
2022-07-26T15:52:36.297Z,35.43
2022-07-26T15:53:46.276Z,35.44
2022-07-26T15:54:36.079Z,35.54
2022-07-26T15:55:36.272Z,35.16
2022-07-26T15:56:36.055Z,36.36
2022-07-26T15:57:36.045Z,36.57
2022-07-26T15:58:36.031Z,36.10
2022-07-26T15:59:36.025Z,36.49
2022-07-26T16:00:36.086Z,36.32
2022-07-26T16:01:36.169Z,36.91
2022-07-26T16:02:42.076Z,38.40
2022-07-26T16:03:41.993Z,38.31
2022-07-26T16:04:35.971Z,39.49
2022-07-26T16:05:35.963Z,37.62
2022-07-26T16:06:35.966Z,39.39
2022-07-26T16:07:35.950Z,38.40
2022-07-26T16:08:47.445Z,39.57
2022-07-26T16:09:37.359Z,39.87
2022-07-26T16:10:36.315Z,39.28
2022-07-26T16:11:35.902Z,41.15
2022-07-26T16:12:35.891Z,39.10
2022-07-26T16:13:35.910Z,41.96
2022-07-26T16:14:36.880Z,39.69
2022-07-26T16:15:42.287Z,39.59
2022-07-26T16:16:35.879Z,41.27
2022-07-26T16:17:35.838Z,40.20
2022-07-26T16:18:36.059Z,40.30
2022-07-26T16:19:38.032Z,40.30
2022-07-26T16:21:22.790Z,41.98
2022-07-26T16:22:22.564Z,40.70
2022-07-26T16:23:22.584Z,40.60
2022-07-26T16:24:22.534Z,41.29
2022-07-26T16:25:22.585Z,41.11